Portada
METAR-TAF:

METAR-TAF

Aeropuertos :

Mécheria, Argelia

latitud: 34-56N, longitud: 000-26W, altitud: 1149 m

Observación

El informe se hizo hace 20 horas y 3 minutos, a las 15:00 UTC
Viento 10 kt del noroeste
Temperatura 12°C
Humedad 44%
Presión 1016 hPa
Visibilidad: 8000 m
Nubes dispersas a una altura de 2600 ft

METAR: DAAY 201500Z 31010KT 8000 SCT026 12/M00 Q1016

Hora: 12:03 (11:03 UTC)

Pronóstico

El informe se hizo hace 21 horas y 3 minutos, a las 14:00 UTC
Pronóstico válido del 20 a las 15 UTC al 20 a las 24 UTC
Viento 10 kt del oeste-noroeste
Visibilidad: 8000 m
Nubes dispersas a una altura de 2600 ft
Evolucionando progresivamente
del 20 a las 20 UTC al 20 a las 23 UTC
Viento 2 kt con dirección variable

TAF: DAAY 201400Z 2015/2024 30010KT 8000 SCT026 BECMG 2020/2023 VRB02KT

Observaciones y pronósticos meteorológicos de más de 4000 aeropuertos (mensajes METAR y TAF).

Los puntos amarillos y rojos representan las estaciones disponibles.

Ponga el ratón en el punto deseado para ver el nombre de la estación.

Haga clic para ver las observaciones y los pronósticos meteorológicos.

Para cambiar el mapa : haga clic en los botones verdes con una cruz de color negro para hacer un zoom, en el botón verde con un guión para alejar o en las flechas verdes para mapas adyacentes.


METAR-TAF: